createdAt,value
2023-04-06T00:10:58.065Z,98248.39
2023-04-06T00:13:37.445Z,98240.52
2023-04-06T00:19:40.326Z,98235.48
2023-04-06T00:25:57.869Z,98249.84
2023-04-06T00:28:39.925Z,98258.30
2023-04-06T00:31:50.259Z,98262.11
2023-04-06T00:34:40.165Z,98267.57
2023-04-06T00:37:50.542Z,98269.76
2023-04-06T00:40:26.751Z,98282.34
2023-04-06T00:43:31.013Z,98275.75
2023-04-06T00:45:34.986Z,98288.03
2023-04-06T00:48:06.078Z,98292.63
2023-04-06T00:50:40.154Z,98293.48
2023-04-06T00:53:10.310Z,98299.77
2023-04-06T00:59:03.870Z,98295.67
2023-04-06T01:01:49.295Z,98278.78
2023-04-06T01:04:53.923Z,98299.22
2023-04-06T01:10:51.915Z,98298.31
2023-04-06T01:16:48.983Z,98302.95
2023-04-06T01:19:39.085Z,98299.11
2023-04-06T01:25:39.205Z,98317.90
2023-04-06T01:28:32.635Z,98311.62
2023-04-06T01:31:04.075Z,98317.61
2023-04-06T01:33:35.986Z,98330.12
2023-04-06T01:36:13.586Z,98331.48
2023-04-06T01:38:44.845Z,98338.02
2023-04-06T01:41:21.773Z,98345.92
2023-04-06T01:49:54.843Z,98349.63
2023-04-06T01:52:35.077Z,98353.44
2023-04-06T01:58:01.461Z,98354.49
2023-04-06T02:00:44.233Z,98359.89
2023-04-06T02:03:17.643Z,98358.84
2023-04-06T02:08:41.531Z,98382.78
2023-04-06T02:14:39.482Z,98379.45
2023-04-06T02:17:18.760Z,98365.55
2023-04-06T02:25:53.872Z,98389.74
2023-04-06T02:28:51.809Z,98399.51
2023-04-06T02:43:06.926Z,98436.20
2023-04-06T02:45:37.539Z,98443.49
2023-04-06T02:48:08.548Z,98438.03
2023-04-06T02:50:47.964Z,98438.58
2023-04-06T02:53:18.229Z,98441.02
2023-04-06T03:02:33.692Z,98454.59
2023-04-06T03:08:07.343Z,98463.59
2023-04-06T03:11:43.540Z,98477.63
2023-04-06T03:20:39.639Z,98503.68
2023-04-06T03:23:31.689Z,98513.77
2023-04-06T03:26:22.730Z,98513.98
2023-04-06T03:29:21.147Z,98519.14
2023-04-06T03:32:34.152Z,98507.64
2023-04-06T03:35:12.151Z,98514.16
2023-04-06T03:38:22.599Z,98517.97
2023-04-06T03:41:06.818Z,98528.55
2023-04-06T03:47:29.656Z,98533.86
2023-04-06T03:53:30.326Z,98538.48
2023-04-06T03:56:40.514Z,98526.34
2023-04-06T03:59:31.040Z,98524.43
2023-04-06T04:02:28.721Z,98522.47
2023-04-06T04:11:39.554Z,98524.73
2023-04-06T04:14:27.725Z,98524.41
2023-04-06T04:17:34.282Z,98542.91
2023-04-06T04:20:46.900Z,98543.95
2023-04-06T04:23:34.682Z,98531.62
2023-04-06T04:26:37.972Z,98525.34
2023-04-06T04:29:56.468Z,98527.45
2023-04-06T04:41:36.885Z,98519.53
2023-04-06T04:44:38.133Z,98519.53
2023-04-06T04:48:13.168Z,98525.52
2023-04-06T04:50:59.606Z,98526.30
2023-04-06T04:53:33.101Z,98516.91
2023-04-06T05:02:29.507Z,98524.18
2023-04-06T05:05:17.182Z,98529.55
2023-04-06T05:14:57.887Z,98518.80
2023-04-06T05:18:04.955Z,98509.76
2023-04-06T05:21:07.459Z,98532.05
2023-04-06T05:23:55.878Z,98530.63
2023-04-06T05:27:16.261Z,98530.01
2023-04-06T05:30:27.775Z,98537.06
2023-04-06T05:32:57.757Z,98547.88
2023-04-06T05:38:45.691Z,98530.31
2023-04-06T05:41:31.885Z,98542.81
2023-04-06T05:44:14.198Z,98553.38
2023-04-06T05:46:46.666Z,98560.97
2023-04-06T05:49:16.664Z,98548.93
2023-04-06T05:52:07.271Z,98538.28
2023-04-06T05:54:37.952Z,98541.51
2023-04-06T05:57:11.133Z,98532.77
2023-04-06T05:59:41.162Z,98536.84
2023-04-06T06:02:21.204Z,98548.48
2023-04-06T06:05:03.251Z,98555.20
2023-04-06T06:07:28.119Z,98554.38
2023-04-06T06:10:01.938Z,98547.79
2023-04-06T06:12:35.497Z,98540.38
2023-04-06T06:17:51.153Z,98549.98
2023-04-06T06:23:39.048Z,98549.61
2023-04-06T06:36:00.563Z,98570.95
2023-04-06T06:39:04.509Z,98562.70
2023-04-06T06:42:06.949Z,98567.32
2023-04-06T06:47:55.682Z,98579.72
2023-04-06T06:50:31.782Z,98585.70
2023-04-06T06:53:22.735Z,98589.16
2023-04-06T06:55:52.840Z,98587.93
2023-04-06T06:58:22.936Z,98588.25
2023-04-06T07:00:53.335Z,98589.00
2023-04-06T07:03:23.434Z,98595.72
2023-04-06T07:06:08.510Z,98601.69
2023-04-06T07:08:49.020Z,98598.14
2023-04-06T07:11:58.260Z,98592.09
2023-04-06T07:15:16.665Z,98588.22
2023-04-06T07:17:56.048Z,98604.77
2023-04-06T07:21:32.900Z,98618.83
2023-04-06T07:27:30.528Z,98631.48
2023-04-06T07:30:00.900Z,98649.94
2023-04-06T07:36:04.041Z,98655.48
2023-04-06T07:41:38.957Z,98639.17
2023-04-06T07:44:35.505Z,98641.72
2023-04-06T07:47:05.488Z,98636.42
2023-04-06T07:49:35.507Z,98647.59
2023-04-06T07:52:05.591Z,98641.54
2023-04-06T07:54:35.468Z,98657.03
2023-04-06T07:57:25.594Z,98637.61
2023-04-06T07:59:56.336Z,98637.61
2023-04-06T08:02:38.882Z,98609.35
2023-04-06T08:05:09.439Z,98609.35
2023-04-06T08:07:39.429Z,98634.50
2023-04-06T08:10:09.738Z,98635.24
2023-04-06T08:12:39.876Z,98634.91
2023-04-06T08:15:10.012Z,98632.44
2023-04-06T08:17:39.975Z,98638.08
2023-04-06T08:20:10.395Z,98638.52
2023-04-06T08:22:40.438Z,98639.05
2023-04-06T08:25:10.565Z,98631.96
2023-04-06T08:27:40.530Z,98635.71
2023-04-06T08:30:10.797Z,98629.98
2023-04-06T08:32:45.150Z,98621.20
2023-04-06T08:35:15.548Z,98629.06
2023-04-06T08:37:45.506Z,98640.14
2023-04-06T08:40:18.565Z,98641.50
2023-04-06T08:42:53.364Z,98643.56
2023-04-06T08:45:23.673Z,98630.73
2023-04-06T08:48:07.973Z,98618.70
2023-04-06T08:50:53.028Z,98627.93
2023-04-06T08:56:11.967Z,98609.64
2023-04-06T08:58:42.959Z,98597.61
2023-04-06T09:01:14.396Z,98564.40
2023-04-06T09:03:44.382Z,98590.43
2023-04-06T09:06:18.215Z,98595.57
2023-04-06T09:09:18.760Z,98594.42
2023-04-06T09:12:15.550Z,98602.80
2023-04-06T09:15:24.901Z,98593.50
2023-04-06T09:18:06.518Z,98596.42
2023-04-06T09:21:16.288Z,98605.84
2023-04-06T09:24:44.957Z,98609.86
2023-04-06T09:28:02.318Z,98601.08
2023-04-06T09:30:54.229Z,98604.53
2023-04-06T09:33:33.039Z,98599.00
2023-04-06T09:40:01.475Z,98586.75
2023-04-06T09:42:45.853Z,98586.75
2023-04-06T09:48:45.056Z,98621.08
2023-04-06T09:54:37.320Z,98624.23
2023-04-06T10:00:23.036Z,98646.30
2023-04-06T10:09:37.804Z,98649.66
2023-04-06T10:12:27.857Z,98665.13
2023-04-06T10:15:53.832Z,98653.63
2023-04-06T10:18:41.883Z,98659.59
2023-04-06T10:21:46.618Z,98646.98
2023-04-06T10:24:23.914Z,98645.82
2023-04-06T10:27:26.707Z,98641.12
2023-04-06T10:30:41.337Z,98653.57
2023-04-06T10:34:19.421Z,98670.06
2023-04-06T10:37:18.214Z,98665.69
2023-04-06T10:39:59.497Z,98657.88
2023-04-06T10:42:41.818Z,98672.58
2023-04-06T10:45:35.052Z,98667.05
2023-04-06T10:48:54.003Z,98668.64
2023-04-06T10:51:47.769Z,98671.02
2023-04-06T10:54:17.714Z,98680.23
2023-04-06T11:06:44.465Z,98667.91
2023-04-06T11:09:56.144Z,98691.81
2023-04-06T11:12:31.998Z,98699.23
2023-04-06T11:18:38.533Z,98712.61
2023-04-06T11:21:47.485Z,98727.65
2023-04-06T11:31:07.610Z,98701.30
2023-04-06T11:33:40.614Z,98694.61
2023-04-06T11:36:16.843Z,98699.11
2023-04-06T11:38:47.064Z,98710.27
2023-04-06T11:41:16.967Z,98724.25
2023-04-06T11:43:52.670Z,98741.48
2023-04-06T11:46:22.890Z,98755.16
2023-04-06T11:48:53.228Z,98765.09
2023-04-06T11:51:51.175Z,98774.70
2023-04-06T11:54:39.275Z,98791.94
2023-04-06T11:57:37.891Z,98795.05
2023-04-06T12:00:50.054Z,98806.55
2023-04-06T12:03:48.313Z,98810.83
2023-04-06T12:09:34.099Z,98815.81
2023-04-06T12:15:21.117Z,98804.91
2023-04-06T12:17:51.616Z,98820.37
2023-04-06T12:20:27.233Z,98830.62
2023-04-06T12:22:55.058Z,98841.99
2023-04-06T12:25:26.753Z,98834.27
2023-04-06T12:27:57.680Z,98826.89
2023-04-06T12:30:45.279Z,98825.43
2023-04-06T12:33:21.002Z,98823.50
2023-04-06T12:35:51.369Z,98828.09
2023-04-06T12:38:22.260Z,98834.55
2023-04-06T12:40:52.324Z,98824.59
2023-04-06T12:43:22.236Z,98835.43
2023-04-06T12:46:14.378Z,98835.43
2023-04-06T12:55:12.977Z,98834.98
2023-04-06T12:58:29.860Z,98846.25
2023-04-06T13:01:24.399Z,98855.13
2023-04-06T13:04:15.849Z,98843.06
2023-04-06T13:10:14.648Z,98814.91
2023-04-06T13:12:45.593Z,98815.82
2023-04-06T13:15:37.100Z,98830.05
2023-04-06T13:18:02.767Z,98842.92
2023-04-06T13:20:32.725Z,98839.76
2023-04-06T13:23:13.178Z,98845.06
2023-04-06T13:25:43.316Z,98830.88
2023-04-06T13:29:07.468Z,98856.90
2023-04-06T13:31:37.663Z,98864.30
2023-04-06T13:34:07.640Z,98863.02
2023-04-06T13:36:59.252Z,98866.91
2023-04-06T13:39:55.682Z,98863.73
2023-04-06T13:43:20.884Z,98854.65
2023-04-06T13:45:56.943Z,98863.09
2023-04-06T13:49:14.290Z,98865.66
2023-04-06T13:52:08.770Z,98867.31
2023-04-06T13:54:58.010Z,98885.97
2023-04-06T14:01:01.527Z,98900.70
2023-04-06T14:04:08.665Z,98915.69
2023-04-06T14:07:01.349Z,98919.48
2023-04-06T14:09:59.452Z,98926.05
2023-04-06T14:12:50.499Z,98918.74
2023-04-06T14:18:54.354Z,98947.84
2023-04-06T14:31:00.824Z,98948.19
2023-04-06T14:34:15.889Z,98963.17
2023-04-06T14:36:59.053Z,98978.92
2023-04-06T14:43:24.891Z,98984.77
2023-04-06T14:46:29.305Z,98979.23
2023-04-06T14:48:59.445Z,98976.75
2023-04-06T14:51:58.007Z,98985.54
2023-04-06T14:54:45.969Z,98993.09
2023-04-06T14:57:16.169Z,99002.31
2023-04-06T14:59:47.670Z,99010.16
2023-04-06T15:02:42.539Z,99013.41
2023-04-06T15:05:10.858Z,99013.11
2023-04-06T15:07:45.275Z,99029.95
2023-04-06T15:10:22.560Z,99036.46
2023-04-06T15:16:36.665Z,99041.56
2023-04-06T15:20:22.650Z,99044.73
2023-04-06T15:22:48.504Z,99057.81
2023-04-06T15:25:29.564Z,99057.81
2023-04-06T15:31:38.635Z,99034.86
2023-04-06T15:34:49.326Z,99036.36
2023-04-06T15:43:26.504Z,99051.49
2023-04-06T15:46:13.376Z,99049.63
2023-04-06T15:55:32.128Z,99047.84
2023-04-06T15:58:26.175Z,99036.17
2023-04-06T16:01:24.014Z,99036.70
2023-04-06T16:07:35.627Z,99036.50
2023-04-06T16:13:54.913Z,99027.08
2023-04-06T16:19:45.333Z,99050.52
2023-04-06T16:22:41.871Z,99044.03
2023-04-06T16:25:46.739Z,99035.33
2023-04-06T16:28:59.693Z,99033.97
2023-04-06T16:34:36.010Z,99028.28
2023-04-06T16:37:37.156Z,99029.74
2023-04-06T16:41:19.240Z,99037.09
2023-04-06T16:44:04.316Z,99023.27
2023-04-06T16:46:49.534Z,99022.20
2023-04-06T16:49:45.266Z,99026.58
2023-04-06T16:52:40.735Z,99024.72
2023-04-06T16:58:52.994Z,99030.16
2023-04-06T17:01:56.126Z,99027.44
2023-04-06T17:04:58.857Z,99024.48
2023-04-06T17:11:04.650Z,99011.19
2023-04-06T17:14:01.349Z,99004.88
2023-04-06T17:19:53.637Z,99001.13
2023-04-06T17:25:40.355Z,99017.65
2023-04-06T17:28:37.595Z,99023.21
2023-04-06T17:34:52.961Z,99015.03
2023-04-06T17:37:21.313Z,99008.52
2023-04-06T17:42:39.238Z,98988.09
2023-04-06T17:45:09.813Z,98993.03
2023-04-06T17:47:39.880Z,98985.70
2023-04-06T17:50:10.624Z,98983.50
2023-04-06T17:55:53.477Z,98981.26
2023-04-06T17:58:45.021Z,98980.55
2023-04-06T18:01:35.090Z,98970.47
2023-04-06T18:07:46.357Z,98973.11
2023-04-06T18:10:33.258Z,98969.97
2023-04-06T18:13:37.143Z,98968.61
2023-04-06T18:19:48.803Z,98977.91
2023-04-06T18:22:42.716Z,98974.89
2023-04-06T18:28:44.740Z,98981.70
2023-04-06T18:31:45.230Z,98991.00
2023-04-06T18:34:38.967Z,98984.42
2023-04-06T18:37:30.315Z,98991.86
2023-04-06T18:40:20.783Z,98995.41
2023-04-06T18:45:48.997Z,99002.76
2023-04-06T18:48:36.225Z,98985.34
2023-04-06T18:54:03.533Z,98996.24
2023-04-06T18:56:44.301Z,98987.00
2023-04-06T18:59:20.146Z,98981.88
2023-04-06T19:02:19.069Z,98979.98
2023-04-06T19:05:21.956Z,98979.98
2023-04-06T19:07:55.343Z,98968.55
2023-04-06T19:13:53.457Z,98961.20
2023-04-06T19:16:37.769Z,98953.86
2023-04-06T19:24:58.608Z,98947.91
2023-04-06T19:27:32.011Z,98945.19
2023-04-06T19:30:17.153Z,98950.63
2023-04-06T19:35:52.332Z,98936.23
2023-04-06T19:44:52.248Z,98928.56
2023-04-06T19:47:25.255Z,98927.32
2023-04-06T19:50:25.270Z,98925.66
2023-04-06T19:55:53.244Z,98903.09
2023-04-06T20:01:57.204Z,98893.05
2023-04-06T20:05:09.957Z,98886.23
2023-04-06T20:11:29.447Z,98890.41
2023-04-06T20:14:11.402Z,98892.81
2023-04-06T20:32:25.362Z,98871.21
2023-04-06T20:38:33.043Z,98867.74
2023-04-06T20:41:32.414Z,98857.37
2023-04-06T20:44:39.010Z,98851.68
2023-04-06T20:47:09.842Z,98847.59
2023-04-06T20:53:34.759Z,98846.02
2023-04-06T20:56:13.389Z,98851.23
2023-04-06T20:59:14.784Z,98850.19
2023-04-06T21:08:47.146Z,98817.56
2023-04-06T21:11:17.375Z,98800.14
2023-04-06T21:14:47.610Z,98808.61
2023-04-06T21:17:42.456Z,98800.22
2023-04-06T21:20:49.094Z,98798.86
2023-04-06T21:23:52.041Z,98801.59
2023-04-06T21:26:27.149Z,98797.87
2023-04-06T21:29:23.207Z,98775.85
2023-04-06T21:32:30.087Z,98786.22
2023-04-06T21:35:55.159Z,98789.55
2023-04-06T21:41:25.286Z,98769.34
2023-04-06T21:47:34.205Z,98760.02
2023-04-06T21:50:57.945Z,98757.08
2023-04-06T21:56:30.171Z,98747.52
2023-04-06T22:02:43.409Z,98758.87
2023-04-06T22:12:13.463Z,98732.38
2023-04-06T22:14:43.654Z,98725.41
2023-04-06T22:17:44.988Z,98735.68
2023-04-06T22:23:45.386Z,98731.27
2023-04-06T22:26:22.331Z,98732.81
2023-04-06T22:29:17.873Z,98731.05
2023-04-06T22:41:39.164Z,98729.16
2023-04-06T22:50:50.212Z,98733.07
2023-04-06T22:53:55.946Z,98733.36
2023-04-06T23:02:36.427Z,98735.22
2023-04-06T23:05:38.112Z,98734.14
2023-04-06T23:08:44.911Z,98746.70
2023-04-06T23:12:10.598Z,98743.23
2023-04-06T23:23:34.232Z,98736.08
2023-04-06T23:27:39.499Z,98739.41
2023-04-06T23:29:48.721Z,98733.70
2023-04-06T23:32:48.528Z,98747.42
2023-04-06T23:39:36.939Z,98742.89
2023-04-06T23:42:28.789Z,98738.00
2023-04-06T23:45:03.906Z,98742.42
2023-04-06T23:48:18.233Z,98724.42
2023-04-06T23:50:56.649Z,98731.03
2023-04-06T23:57:13.604Z,98731.09
